Country
Station

 

Weather  for  Aeropuerto Jose Marti, Rancho-Boyeros, Habana  -  Cuba    Cuba

  
25 °C (77 °F)
    
 
 

Current METAR for Aeropuerto Jose Marti, Rancho-Boyeros, Habana is :

MUHA 191355Z 11007KT 080V140 9000 SCT070 25/21 Q1021

 

This is a report for Aeropuerto Jose Marti, Rancho-Boyeros, Habana - Cuba.
 
The report was made 17 minutes ago, at 13:55 UTC .
The wind was blowing at a speed of 3.6 meters per second (8.1 miles per hour) from east/southeast (110°), varying between east (080°) and southeast (140°).
 
The temperature was 25 °C (77 °F), with a dew-point at 21 °C (70 °F).
The temperature felt like 26 °C (79 °F).
 
The atmospheric pressure was 1021 hPa (30.15 inHg).
The relative humidity was 78.5%.
 
There were scattered clouds at a height of 2134 meters (7000 feet).
 
The overall visibility was 9.0 kilometers (5.6 miles).
 

 
 
 
 

Country :   A   B   C   D   E   F   G   H   I   J   K   L   M   N   O   P   Q   R   S   T   U   V   W   Y   Z

 

Site Info  |  Disclaimer  |  Credits  |  Privacy
Contact us  |  Add to favorites
© 2013-2019 METARs - All rights reserved